sensor_id;sensor_type;location;lat;lon;timestamp;temperature;humidity
7942;HTU21D;4016;50.758;7.150;2022-09-09T00:00:14;16.49;115.38
7942;HTU21D;4016;50.758;7.150;2022-09-09T00:05:20;16.43;115.78
7942;HTU21D;4016;50.758;7.150;2022-09-09T00:10:34;16.33;116.23
7942;HTU21D;4016;50.758;7.150;2022-09-09T00:15:52;16.25;117.03
7942;HTU21D;4016;50.758;7.150;2022-09-09T00:26:34;16.15;118.99
7942;HTU21D;4016;50.758;7.150;2022-09-09T00:31:36;16.02;118.99
7942;HTU21D;4016;50.758;7.150;2022-09-09T00:36:38;16.00;118.99
7942;HTU21D;4016;50.758;7.150;2022-09-09T00:52:05;15.96;118.99
7942;HTU21D;4016;50.758;7.150;2022-09-09T00:57:28;16.01;118.99
7942;HTU21D;4016;50.758;7.150;2022-09-09T01:07:49;16.06;118.99
7942;HTU21D;4016;50.758;7.150;2022-09-09T01:12:52;16.02;118.99
7942;HTU21D;4016;50.758;7.150;2022-09-09T01:28:27;16.05;118.99
7942;HTU21D;4016;50.758;7.150;2022-09-09T01:33:28;16.05;118.99
7942;HTU21D;4016;50.758;7.150;2022-09-09T01:38:29;16.11;118.99
7942;HTU21D;4016;50.758;7.150;2022-09-09T01:43:31;16.13;118.99
7942;HTU21D;4016;50.758;7.150;2022-09-09T01:48:33;16.17;118.99
7942;HTU21D;4016;50.758;7.150;2022-09-09T01:53:33;16.21;118.99
7942;HTU21D;4016;50.758;7.150;2022-09-09T02:04:24;16.34;118.65
7942;HTU21D;4016;50.758;7.150;2022-09-09T02:09:29;16.39;117.42
7942;HTU21D;4016;50.758;7.150;2022-09-09T02:14:40;16.43;116.89
7942;HTU21D;4016;50.758;7.150;2022-09-09T02:19:48;16.48;115.86
7942;HTU21D;4016;50.758;7.150;2022-09-09T02:24:50;16.69;114.30
7942;HTU21D;4016;50.758;7.150;2022-09-09T02:29:55;16.54;115.60
7942;HTU21D;4016;50.758;7.150;2022-09-09T02:35:01;16.54;116.11
7942;HTU21D;4016;50.758;7.150;2022-09-09T02:40:05;16.52;116.05
7942;HTU21D;4016;50.758;7.150;2022-09-09T02:45:08;16.57;115.96
7942;HTU21D;4016;50.758;7.150;2022-09-09T02:55:41;16.63;114.80
7942;HTU21D;4016;50.758;7.150;2022-09-09T03:00:40;16.61;114.95
7942;HTU21D;4016;50.758;7.150;2022-09-09T03:05:40;16.63;114.36
7942;HTU21D;4016;50.758;7.150;2022-09-09T03:10:41;16.71;114.48
7942;HTU21D;4016;50.758;7.150;2022-09-09T03:15:42;16.63;114.54
7942;HTU21D;4016;50.758;7.150;2022-09-09T03:20:42;16.62;115.06
7942;HTU21D;4016;50.758;7.150;2022-09-09T03:25:47;16.61;115.38
7942;HTU21D;4016;50.758;7.150;2022-09-09T03:30:48;16.61;115.61
7942;HTU21D;4016;50.758;7.150;2022-09-09T03:35:49;16.59;115.89
7942;HTU21D;4016;50.758;7.150;2022-09-09T03:40:53;16.69;115.34
7942;HTU21D;4016;50.758;7.150;2022-09-09T03:45:57;16.69;114.45
7942;HTU21D;4016;50.758;7.150;2022-09-09T03:50:58;16.76;114.14
7942;HTU21D;4016;50.758;7.150;2022-09-09T03:56:00;16.72;114.97
7942;HTU21D;4016;50.758;7.150;2022-09-09T04:01:12;16.67;115.46
7942;HTU21D;4016;50.758;7.150;2022-09-09T04:06:14;16.69;115.39
7942;HTU21D;4016;50.758;7.150;2022-09-09T04:11:15;16.72;115.49
7942;HTU21D;4016;50.758;7.150;2022-09-09T04:16:16;16.71;115.49
7942;HTU21D;4016;50.758;7.150;2022-09-09T04:21:16;16.70;115.85
7942;HTU21D;4016;50.758;7.150;2022-09-09T04:26:17;16.67;116.02
7942;HTU21D;4016;50.758;7.150;2022-09-09T04:31:22;16.71;116.38
7942;HTU21D;4016;50.758;7.150;2022-09-09T04:36:23;16.74;115.57
7942;HTU21D;4016;50.758;7.150;2022-09-09T04:41:23;16.71;115.56
7942;HTU21D;4016;50.758;7.150;2022-09-09T04:46:24;16.71;115.10
7942;HTU21D;4016;50.758;7.150;2022-09-09T04:51:25;16.77;115.09
7942;HTU21D;4016;50.758;7.150;2022-09-09T04:56:25;16.73;115.31
7942;HTU21D;4016;50.758;7.150;2022-09-09T05:01:27;16.77;113.71
7942;HTU21D;4016;50.758;7.150;2022-09-09T05:06:27;16.73;114.13
7942;HTU21D;4016;50.758;7.150;2022-09-09T05:11:29;16.77;112.83
7942;HTU21D;4016;50.758;7.150;2022-09-09T05:16:30;16.72;112.94
7942;HTU21D;4016;50.758;7.150;2022-09-09T05:21:30;16.74;112.68
7942;HTU21D;4016;50.758;7.150;2022-09-09T05:26:31;16.88;108.88
7942;HTU21D;4016;50.758;7.150;2022-09-09T05:31:32;16.90;109.43
7942;HTU21D;4016;50.758;7.150;2022-09-09T05:36:33;16.85;111.23
7942;HTU21D;4016;50.758;7.150;2022-09-09T05:41:33;16.89;109.53
7942;HTU21D;4016;50.758;7.150;2022-09-09T05:46:34;16.86;110.26
7942;HTU21D;4016;50.758;7.150;2022-09-09T05:51:35;16.88;111.31
7942;HTU21D;4016;50.758;7.150;2022-09-09T05:56:35;16.94;112.29
7942;HTU21D;4016;50.758;7.150;2022-09-09T06:01:36;17.00;112.99
7942;HTU21D;4016;50.758;7.150;2022-09-09T06:06:40;17.05;112.88
7942;HTU21D;4016;50.758;7.150;2022-09-09T06:11:42;17.15;112.61
7942;HTU21D;4016;50.758;7.150;2022-09-09T06:16:42;17.19;113.25
7942;HTU21D;4016;50.758;7.150;2022-09-09T06:21:44;17.31;112.17
7942;HTU21D;4016;50.758;7.150;2022-09-09T06:26:44;17.43;111.49
7942;HTU21D;4016;50.758;7.150;2022-09-09T06:31:45;17.39;107.86
7942;HTU21D;4016;50.758;7.150;2022-09-09T06:36:45;17.39;108.67
7942;HTU21D;4016;50.758;7.150;2022-09-09T06:41:46;17.51;106.68
7942;HTU21D;4016;50.758;7.150;2022-09-09T06:46:47;17.53;107.42
7942;HTU21D;4016;50.758;7.150;2022-09-09T06:51:48;17.59;107.75
7942;HTU21D;4016;50.758;7.150;2022-09-09T06:56:49;17.67;104.64
7942;HTU21D;4016;50.758;7.150;2022-09-09T07:01:50;17.80;103.68
7942;HTU21D;4016;50.758;7.150;2022-09-09T07:06:52;17.94;103.38
7942;HTU21D;4016;50.758;7.150;2022-09-09T07:11:52;18.20;102.13
7942;HTU21D;4016;50.758;7.150;2022-09-09T07:16:53;18.50;98.10
7942;HTU21D;4016;50.758;7.150;2022-09-09T07:21:53;18.85;97.48
7942;HTU21D;4016;50.758;7.150;2022-09-09T07:26:54;19.13;92.46
7942;HTU21D;4016;50.758;7.150;2022-09-09T07:31:54;19.48;90.31
7942;HTU21D;4016;50.758;7.150;2022-09-09T07:36:54;19.87;88.35
7942;HTU21D;4016;50.758;7.150;2022-09-09T07:41:56;20.39;85.87
7942;HTU21D;4016;50.758;7.150;2022-09-09T07:46:58;20.63;79.22
7942;HTU21D;4016;50.758;7.150;2022-09-09T07:51:58;20.39;79.22
7942;HTU21D;4016;50.758;7.150;2022-09-09T07:56:59;20.19;80.85
7942;HTU21D;4016;50.758;7.150;2022-09-09T08:01:59;20.04;82.04
7942;HTU21D;4016;50.758;7.150;2022-09-09T08:07:00;19.76;83.81
7942;HTU21D;4016;50.758;7.150;2022-09-09T08:12:01;19.79;82.90
7942;HTU21D;4016;50.758;7.150;2022-09-09T08:17:02;19.81;84.58
7942;HTU21D;4016;50.758;7.150;2022-09-09T08:22:02;19.96;80.32
7942;HTU21D;4016;50.758;7.150;2022-09-09T08:27:03;19.94;80.95
7942;HTU21D;4016;50.758;7.150;2022-09-09T08:32:04;19.96;80.06
7942;HTU21D;4016;50.758;7.150;2022-09-09T08:37:04;20.25;78.44
7942;HTU21D;4016;50.758;7.150;2022-09-09T08:42:35;20.47;79.79
7942;HTU21D;4016;50.758;7.150;2022-09-09T08:53:22;20.88;74.02
7942;HTU21D;4016;50.758;7.150;2022-09-09T08:58:28;21.11;71.90
7942;HTU21D;4016;50.758;7.150;2022-09-09T09:04:05;20.90;75.88
7942;HTU21D;4016;50.758;7.150;2022-09-09T09:14:25;21.28;67.45
7942;HTU21D;4016;50.758;7.150;2022-09-09T09:19:27;21.45;66.57
7942;HTU21D;4016;50.758;7.150;2022-09-09T09:29:54;21.38;66.01
7942;HTU21D;4016;50.758;7.150;2022-09-09T09:34:58;21.44;66.71
7942;HTU21D;4016;50.758;7.150;2022-09-09T09:40:15;21.42;64.44
7942;HTU21D;4016;50.758;7.150;2022-09-09T09:45:43;21.32;65.63
7942;HTU21D;4016;50.758;7.150;2022-09-09T09:50:52;21.32;62.31
7942;HTU21D;4016;50.758;7.150;2022-09-09T09:56:00;21.27;64.75
7942;HTU21D;4016;50.758;7.150;2022-09-09T10:01:01;21.27;62.85
7942;HTU21D;4016;50.758;7.150;2022-09-09T10:06:01;21.29;61.02
7942;HTU21D;4016;50.758;7.150;2022-09-09T10:11:18;21.06;62.82
7942;HTU21D;4016;50.758;7.150;2022-09-09T10:32:37;21.44;64.90
7942;HTU21D;4016;50.758;7.150;2022-09-09T10:59:12;21.58;58.91
7942;HTU21D;4016;50.758;7.150;2022-09-09T11:04:34;21.58;60.66
7942;HTU21D;4016;50.758;7.150;2022-09-09T11:09:39;21.75;61.20
7942;HTU21D;4016;50.758;7.150;2022-09-09T11:15:43;22.16;62.19
7942;HTU21D;4016;50.758;7.150;2022-09-09T11:20:12;22.61;56.69
7942;HTU21D;4016;50.758;7.150;2022-09-09T11:25:26;22.54;57.51
7942;HTU21D;4016;50.758;7.150;2022-09-09T11:35:55;23.25;54.56
7942;HTU21D;4016;50.758;7.150;2022-09-09T11:41:03;23.25;53.88
7942;HTU21D;4016;50.758;7.150;2022-09-09T11:46:04;23.23;51.70
7942;HTU21D;4016;50.758;7.150;2022-09-09T11:56:44;22.80;53.17
7942;HTU21D;4016;50.758;7.150;2022-09-09T12:01:45;22.82;52.55
7942;HTU21D;4016;50.758;7.150;2022-09-09T12:17:19;22.79;51.96
7942;HTU21D;4016;50.758;7.150;2022-09-09T12:22:28;22.87;52.53
7942;HTU21D;4016;50.758;7.150;2022-09-09T12:27:35;22.86;53.71
7942;HTU21D;4016;50.758;7.150;2022-09-09T12:32:37;22.76;52.38
7942;HTU21D;4016;50.758;7.150;2022-09-09T12:37:52;22.66;51.47
7942;HTU21D;4016;50.758;7.150;2022-09-09T12:42:54;22.49;52.36
7942;HTU21D;4016;50.758;7.150;2022-09-09T12:48:08;22.68;52.89
7942;HTU21D;4016;50.758;7.150;2022-09-09T12:53:23;22.79;55.62
7942;HTU21D;4016;50.758;7.150;2022-09-09T12:58:26;22.92;55.29
7942;HTU21D;4016;50.758;7.150;2022-09-09T13:03:28;22.65;54.59
7942;HTU21D;4016;50.758;7.150;2022-09-09T13:08:29;22.41;54.76
7942;HTU21D;4016;50.758;7.150;2022-09-09T13:13:39;22.16;55.65
7942;HTU21D;4016;50.758;7.150;2022-09-09T13:18:40;22.37;56.01
7942;HTU21D;4016;50.758;7.150;2022-09-09T13:23:48;22.44;55.23
7942;HTU21D;4016;50.758;7.150;2022-09-09T13:28:49;22.28;55.39
7942;HTU21D;4016;50.758;7.150;2022-09-09T13:33:50;21.96;62.24
7942;HTU21D;4016;50.758;7.150;2022-09-09T13:38:55;21.70;64.70
7942;HTU21D;4016;50.758;7.150;2022-09-09T13:43:56;22.01;62.15
7942;HTU21D;4016;50.758;7.150;2022-09-09T13:48:59;22.48;61.39
7942;HTU21D;4016;50.758;7.150;2022-09-09T13:53:59;22.66;56.45
7942;HTU21D;4016;50.758;7.150;2022-09-09T13:59:01;22.76;55.16
7942;HTU21D;4016;50.758;7.150;2022-09-09T14:04:02;22.69;56.99
7942;HTU21D;4016;50.758;7.150;2022-09-09T14:09:03;22.79;58.13
7942;HTU21D;4016;50.758;7.150;2022-09-09T14:14:03;23.08;56.05
7942;HTU21D;4016;50.758;7.150;2022-09-09T14:19:03;22.87;56.39
7942;HTU21D;4016;50.758;7.150;2022-09-09T14:24:04;22.63;60.02
7942;HTU21D;4016;50.758;7.150;2022-09-09T14:29:04;22.79;58.60
7942;HTU21D;4016;50.758;7.150;2022-09-09T14:34:05;23.21;55.83
7942;HTU21D;4016;50.758;7.150;2022-09-09T14:39:06;23.02;55.97
7942;HTU21D;4016;50.758;7.150;2022-09-09T14:44:06;22.80;58.38
7942;HTU21D;4016;50.758;7.150;2022-09-09T14:49:06;23.10;57.63
7942;HTU21D;4016;50.758;7.150;2022-09-09T14:54:07;23.41;56.68
7942;HTU21D;4016;50.758;7.150;2022-09-09T14:59:08;23.28;57.05
7942;HTU21D;4016;50.758;7.150;2022-09-09T15:04:11;22.98;58.61
7942;HTU21D;4016;50.758;7.150;2022-09-09T15:09:12;22.75;59.33
7942;HTU21D;4016;50.758;7.150;2022-09-09T15:14:13;22.46;60.03
7942;HTU21D;4016;50.758;7.150;2022-09-09T15:19:13;22.13;62.23
7942;HTU21D;4016;50.758;7.150;2022-09-09T15:24:13;21.97;65.72
7942;HTU21D;4016;50.758;7.150;2022-09-09T15:29:14;22.01;68.36
7942;HTU21D;4016;50.758;7.150;2022-09-09T15:34:14;21.77;70.47
7942;HTU21D;4016;50.758;7.150;2022-09-09T15:39:16;21.60;72.03
7942;HTU21D;4016;50.758;7.150;2022-09-09T15:44:17;21.38;69.29
7942;HTU21D;4016;50.758;7.150;2022-09-09T15:49:24;21.30;70.12
7942;HTU21D;4016;50.758;7.150;2022-09-09T15:54:26;21.07;74.80
7942;HTU21D;4016;50.758;7.150;2022-09-09T15:59:29;20.88;76.39
7942;HTU21D;4016;50.758;7.150;2022-09-09T16:04:29;20.83;77.08
7942;HTU21D;4016;50.758;7.150;2022-09-09T16:09:31;20.74;79.12
7942;HTU21D;4016;50.758;7.150;2022-09-09T16:14:31;20.79;78.18
7942;HTU21D;4016;50.758;7.150;2022-09-09T16:19:34;20.75;80.04
7942;HTU21D;4016;50.758;7.150;2022-09-09T16:24:35;20.72;81.93
7942;HTU21D;4016;50.758;7.150;2022-09-09T16:29:35;20.58;80.40
7942;HTU21D;4016;50.758;7.150;2022-09-09T16:34:35;20.51;81.36
7942;HTU21D;4016;50.758;7.150;2022-09-09T16:39:36;20.59;77.51
7942;HTU21D;4016;50.758;7.150;2022-09-09T16:44:36;20.42;80.92
7942;HTU21D;4016;50.758;7.150;2022-09-09T16:49:36;20.17;84.10
7942;HTU21D;4016;50.758;7.150;2022-09-09T16:54:37;19.95;90.42
7942;HTU21D;4016;50.758;7.150;2022-09-09T16:59:37;19.80;94.57
7942;HTU21D;4016;50.758;7.150;2022-09-09T17:04:38;19.74;95.25
7942;HTU21D;4016;50.758;7.150;2022-09-09T17:09:39;19.40;97.19
7942;HTU21D;4016;50.758;7.150;2022-09-09T17:14:39;19.22;98.94
7942;HTU21D;4016;50.758;7.150;2022-09-09T17:19:39;19.01;99.48
7942;HTU21D;4016;50.758;7.150;2022-09-09T17:24:40;18.92;101.43
7942;HTU21D;4016;50.758;7.150;2022-09-09T17:29:40;18.84;103.62
7942;HTU21D;4016;50.758;7.150;2022-09-09T17:34:41;18.72;105.14
7942;HTU21D;4016;50.758;7.150;2022-09-09T17:39:41;18.53;106.46
7942;HTU21D;4016;50.758;7.150;2022-09-09T17:44:41;18.36;107.07
7942;HTU21D;4016;50.758;7.150;2022-09-09T17:50:09;18.30;107.92
7942;HTU21D;4016;50.758;7.150;2022-09-09T17:55:11;18.23;108.36
7942;HTU21D;4016;50.758;7.150;2022-09-09T18:00:12;18.19;108.94
7942;HTU21D;4016;50.758;7.150;2022-09-09T18:05:12;18.00;107.87
7942;HTU21D;4016;50.758;7.150;2022-09-09T18:10:14;17.99;106.85
7942;HTU21D;4016;50.758;7.150;2022-09-09T18:15:14;17.91;106.28
7942;HTU21D;4016;50.758;7.150;2022-09-09T18:20:15;17.97;104.14
7942;HTU21D;4016;50.758;7.150;2022-09-09T18:25:16;17.99;102.09
7942;HTU21D;4016;50.758;7.150;2022-09-09T18:30:17;17.99;101.22
7942;HTU21D;4016;50.758;7.150;2022-09-09T18:35:19;17.91;101.34
7942;HTU21D;4016;50.758;7.150;2022-09-09T18:40:19;17.87;101.61
7942;HTU21D;4016;50.758;7.150;2022-09-09T18:45:20;17.67;103.41
7942;HTU21D;4016;50.758;7.150;2022-09-09T18:50:21;17.72;102.73
7942;HTU21D;4016;50.758;7.150;2022-09-09T18:55:22;17.63;103.56
7942;HTU21D;4016;50.758;7.150;2022-09-09T19:00:22;17.47;104.65
7942;HTU21D;4016;50.758;7.150;2022-09-09T19:05:22;17.38;105.11
7942;HTU21D;4016;50.758;7.150;2022-09-09T19:10:23;17.25;105.42
7942;HTU21D;4016;50.758;7.150;2022-09-09T19:15:24;17.17;106.73
7942;HTU21D;4016;50.758;7.150;2022-09-09T19:20:24;17.13;108.08
7942;HTU21D;4016;50.758;7.150;2022-09-09T19:25:25;17.09;109.39
7942;HTU21D;4016;50.758;7.150;2022-09-09T19:30:25;17.00;110.89
7942;HTU21D;4016;50.758;7.150;2022-09-09T19:35:26;16.96;112.64
7942;HTU21D;4016;50.758;7.150;2022-09-09T19:40:27;17.02;113.71
7942;HTU21D;4016;50.758;7.150;2022-09-09T19:45:29;16.86;115.97
7942;HTU21D;4016;50.758;7.150;2022-09-09T19:50:29;16.86;115.92
7942;HTU21D;4016;50.758;7.150;2022-09-09T19:55:30;16.84;116.18
7942;HTU21D;4016;50.758;7.150;2022-09-09T20:00:32;16.87;115.28
7942;HTU21D;4016;50.758;7.150;2022-09-09T20:05:33;16.74;116.31
7942;HTU21D;4016;50.758;7.150;2022-09-09T20:10:33;16.70;116.98
7942;HTU21D;4016;50.758;7.150;2022-09-09T20:15:34;16.63;116.81
7942;HTU21D;4016;50.758;7.150;2022-09-09T20:20:39;16.63;117.12
7942;HTU21D;4016;50.758;7.150;2022-09-09T20:25:39;16.58;117.50
7942;HTU21D;4016;50.758;7.150;2022-09-09T20:30:40;16.52;117.64
7942;HTU21D;4016;50.758;7.150;2022-09-09T20:35:40;16.55;117.70
7942;HTU21D;4016;50.758;7.150;2022-09-09T20:40:40;16.59;117.78
7942;HTU21D;4016;50.758;7.150;2022-09-09T20:45:41;16.70;116.68
7942;HTU21D;4016;50.758;7.150;2022-09-09T20:50:42;16.74;115.87
7942;HTU21D;4016;50.758;7.150;2022-09-09T20:55:43;16.71;115.58
7942;HTU21D;4016;50.758;7.150;2022-09-09T21:00:43;16.72;115.51
7942;HTU21D;4016;50.758;7.150;2022-09-09T21:05:44;16.74;113.54
7942;HTU21D;4016;50.758;7.150;2022-09-09T21:10:44;16.76;113.13
7942;HTU21D;4016;50.758;7.150;2022-09-09T21:15:46;16.75;113.08
7942;HTU21D;4016;50.758;7.150;2022-09-09T21:20:48;16.66;113.57
7942;HTU21D;4016;50.758;7.150;2022-09-09T21:25:49;16.61;113.61
7942;HTU21D;4016;50.758;7.150;2022-09-09T21:30:51;16.64;113.22
7942;HTU21D;4016;50.758;7.150;2022-09-09T21:35:51;16.56;113.68
7942;HTU21D;4016;50.758;7.150;2022-09-09T21:40:52;16.60;112.57
7942;HTU21D;4016;50.758;7.150;2022-09-09T21:45:52;16.62;112.68
7942;HTU21D;4016;50.758;7.150;2022-09-09T21:50:53;16.54;113.32
7942;HTU21D;4016;50.758;7.150;2022-09-09T21:56:03;16.45;114.24
7942;HTU21D;4016;50.758;7.150;2022-09-09T22:01:16;16.52;113.77
7942;HTU21D;4016;50.758;7.150;2022-09-09T22:06:17;16.45;113.67
7942;HTU21D;4016;50.758;7.150;2022-09-09T22:11:21;16.47;113.22
7942;HTU21D;4016;50.758;7.150;2022-09-09T22:16:22;16.50;113.41
7942;HTU21D;4016;50.758;7.150;2022-09-09T22:21:24;16.52;111.20
7942;HTU21D;4016;50.758;7.150;2022-09-09T22:26:28;16.46;111.73
7942;HTU21D;4016;50.758;7.150;2022-09-09T22:31:28;16.44;111.91
7942;HTU21D;4016;50.758;7.150;2022-09-09T22:36:29;16.45;111.94
7942;HTU21D;4016;50.758;7.150;2022-09-09T22:41:30;16.49;110.83
7942;HTU21D;4016;50.758;7.150;2022-09-09T22:46:31;16.40;111.36
7942;HTU21D;4016;50.758;7.150;2022-09-09T22:51:31;16.47;109.88
7942;HTU21D;4016;50.758;7.150;2022-09-09T22:56:35;16.37;110.52
7942;HTU21D;4016;50.758;7.150;2022-09-09T23:01:35;16.34;110.91
7942;HTU21D;4016;50.758;7.150;2022-09-09T23:06:36;16.28;111.20
7942;HTU21D;4016;50.758;7.150;2022-09-09T23:11:38;16.39;110.50
7942;HTU21D;4016;50.758;7.150;2022-09-09T23:16:42;16.37;110.58
7942;HTU21D;4016;50.758;7.150;2022-09-09T23:21:44;16.35;110.78
7942;HTU21D;4016;50.758;7.150;2022-09-09T23:26:45;16.29;111.43
7942;HTU21D;4016;50.758;7.150;2022-09-09T23:31:46;16.25;111.42
7942;HTU21D;4016;50.758;7.150;2022-09-09T23:36:46;16.32;110.34
7942;HTU21D;4016;50.758;7.150;2022-09-09T23:41:48;16.31;110.14
7942;HTU21D;4016;50.758;7.150;2022-09-09T23:46:49;16.20;110.36
7942;HTU21D;4016;50.758;7.150;2022-09-09T23:51:49;16.14;110.47
7942;HTU21D;4016;50.758;7.150;2022-09-09T23:56:50;16.20;109.17
